Emmagracht — PDYX — position and weather

sailwx.info

Track history (hours):
 
Tides and Currents Weather Stations Pressure Air Temp Water Temp Dewpoint Dewpoint Depression Visibility Wind Speed Wind Dir Waves Ship Positions

Emmagracht

Last reported at 2014-Dec-20 02:24 UTC. Time now 2014-Dec-20 02:56 UTC.
Position N 51°56' E 003°22'.

Length 136 m; beam 19 m; draft 9 m.

Type: Cargo ship. MMSI: 246308000.

Date/timePositionNaut miles runAvg speedWind from/ knotsBaromVisibWave heightAir tempDewpointWater temp
2014-Dec-20 02:24N 51°56' E 003°22'1213.3
2014-Dec-20 01:31N 51°45' E 003°16'1111.7
2014-Dec-20 00:33N 51°34' E 003°24'1211.5
2014-Dec-19 23:33N 51°26' E 003°36'8 8.4
2014-Dec-19 22:33N 51°21' E 003°48'9 9.5
2014-Dec-19 21:33N 51°26' E 004°01'8 8.4
2014-Dec-19 20:33N 51°22' E 004°13'3 3.0
2014-Dec-19 19:33N 51°21' E 004°17'2 2.3
2014-Dec-19 18:33N 51°19' E 004°19'3 2.9
2014-Dec-19 17:30N 51°17' E 004°23'0 0.0
2014-Dec-19 16:33N 51°17' E 004°23'0 0.0
2014-Dec-19 15:33N 51°17' E 004°23'0 0.0
2014-Dec-19 14:33N 51°17' E 004°23'0 0.0
2014-Dec-19 13:33N 51°17' E 004°23'0 0.0
2014-Dec-19 12:33N 51°17' E 004°23'0 0.0
2014-Dec-19 11:30N 51°17' E 004°23'0 0.0
2014-Dec-19 10:33N 51°17' E 004°23'0 0.0
2014-Dec-19 09:33N 51°17' E 004°23'0 0.0
2014-Dec-19 08:33N 51°17' E 004°23'0 0.0
2014-Dec-19 07:33N 51°17' E 004°23'0 0.0
2014-Dec-19 06:33N 51°17' E 004°23'0 0.0
2014-Dec-19 05:33N 51°17' E 004°23'0 0.0
2014-Dec-19 04:30N 51°17' E 004°23'0 0.0
2014-Dec-19 03:33N 51°17' E 004°23'0 0.0
2014-Dec-19 02:33N 51°17' E 004°23'0 0.0
2014-Dec-19 01:33N 51°17' E 004°23'0 0.0
2014-Dec-19 00:33N 51°17' E 004°23'0 0.0
2014-Dec-18 23:33N 51°17' E 004°23'0 0.0
2014-Dec-18 22:33N 51°17' E 004°23'0 0.0
2014-Dec-18 21:33N 51°17' E 004°23'0 0.0
2014-Dec-18 20:30N 51°17' E 004°23'0 0.0
2014-Dec-18 19:33N 51°17' E 004°23'0 0.0
2014-Dec-18 18:33N 51°17' E 004°23'0 0.0
2014-Dec-18 17:33N 51°17' E 004°23'0 0.0
2014-Dec-18 16:33N 51°17' E 004°23'0 0.0
2014-Dec-18 15:33N 51°17' E 004°23'0 0.0
2014-Dec-18 14:30N 51°17' E 004°23'0 0.0
2014-Dec-18 13:33N 51°17' E 004°23'0 0.0
2014-Dec-18 12:33N 51°17' E 004°23'0 0.0
2014-Dec-18 11:32N 51°17' E 004°23'0 0.0
2014-Dec-18 10:32N 51°17' E 004°23'0 0.0
2014-Dec-18 09:32N 51°17' E 004°23'0 0.0
2014-Dec-18 08:32N 51°17' E 004°23'0 0.0
2014-Dec-18 07:32N 51°17' E 004°23'0 0.0
2014-Dec-18 06:32N 51°17' E 004°23'0 0.0
2014-Dec-18 05:32N 51°17' E 004°23'0 0.0
2014-Dec-18 04:32N 51°17' E 004°23'0 0.0
2014-Dec-18 03:32N 51°17' E 004°23'0 0.0
2014-Dec-18 02:32N 51°17' E 004°23'0 0.0
2014-Dec-18 01:32N 51°17' E 004°23'0 0.0
2014-Dec-18 00:32N 51°17' E 004°23'0 0.0
2014-Dec-17 23:32N 51°17' E 004°23'0 0.0
2014-Dec-17 22:32N 51°17' E 004°23'0 0.0
2014-Dec-17 21:32N 51°17' E 004°23'0 0.0
2014-Dec-17 20:32N 51°17' E 004°23'0 0.0
2014-Dec-17 19:32N 51°17' E 004°23'0 0.0
2014-Dec-17 18:32N 51°17' E 004°23'0 0.0
2014-Dec-17 17:32N 51°17' E 004°23'0 0.0
2014-Dec-17 16:32N 51°17' E 004°23'0 0.0
2014-Dec-17 15:32N 51°17' E 004°23'0 0.0
2014-Dec-17 14:32N 51°17' E 004°23'0 0.0
2014-Dec-17 13:32N 51°17' E 004°23'0 0.0
2014-Dec-17 12:32N 51°17' E 004°23'0 0.0
2014-Dec-17 11:32N 51°17' E 004°23'0 0.0
2014-Dec-17 10:32N 51°17' E 004°23'0 0.0
2014-Dec-17 09:32N 51°17' E 004°23'0 0.0
2014-Dec-17 08:29N 51°17' E 004°23'0 0.0
2014-Dec-17 07:32N 51°17' E 004°23'0 0.0
2014-Dec-17 06:32N 51°17' E 004°23'0 0.0
2014-Dec-17 05:32N 51°17' E 004°23'0 0.0
2014-Dec-17 04:32N 51°17' E 004°23'0 0.0
2014-Dec-17 03:32N 51°17' E 004°23'0 0.0
2014-Dec-17 02:32N 51°17' E 004°23'0 0.0
2014-Dec-17 01:32N 51°17' E 004°23'0 0.0
2014-Dec-17 00:31N 51°17' E 004°23'0 0.0
2014-Dec-16 23:31N 51°17' E 004°23'0 0.0
2014-Dec-16 22:31N 51°17' E 004°23'0 0.0
2014-Dec-16 21:31N 51°17' E 004°23'0 0.0
2014-Dec-16 20:28N 51°17' E 004°23'0 0.0
2014-Dec-16 19:28N 51°17' E 004°23'0 0.0
2014-Dec-16 18:31N 51°17' E 004°23'0 0.0
2014-Dec-16 17:31N 51°17' E 004°23'0 0.0
2014-Dec-16 16:31N 51°17' E 004°23'0 0.0
2014-Dec-16 15:31N 51°17' E 004°23'0 0.0
2014-Dec-16 14:31N 51°17' E 004°23'0 0.0
2014-Dec-16 13:31N 51°17' E 004°23'0 0.0
2014-Dec-16 12:31N 51°17' E 004°23'1 1.4
2014-Dec-16 11:33N 51°17' E 004°21'4 4.3
2014-Dec-16 10:34N 51°21' E 004°17'0 0.4
2014-Dec-16 09:33N 51°21' E 004°17'5 5.0
2014-Dec-16 08:33N 51°23' E 004°09'1010.3
2014-Dec-16 07:33N 51°21' E 003°53'1313.3
2014-Dec-16 06:34N 51°25' E 003°33'1515.4
2014-Dec-16 05:33N 51°24' E 003°08'18 8.5
2014-Dec-16 03:28N 51°22' E 002°40'4 3.7
2014-Dec-16 02:25N 51°25' E 002°37'0 0.0
2014-Dec-15 22:34N 51°25' E 002°37'0 0.0
2014-Dec-15 21:33N 51°25' E 002°37'0 0.0
2014-Dec-15 20:30N 51°25' E 002°37'0 0.0
2014-Dec-15 19:33N 51°25' E 002°37'0 0.0
2014-Dec-15 18:33N 51°25' E 002°37'0 0.0
2014-Dec-15 17:30N 51°25' E 002°37'0 0.1
2014-Dec-15 16:33N 51°25' E 002°37'0 0.1
2014-Dec-15 15:33N 51°25' E 002°37'5 5.0
2014-Dec-15 14:33N 51°22' E 002°31'1312.8
2014-Dec-15 13:33N 51°16' E 002°12'1312.9
2014-Dec-15 12:33N 51°10' E 001°54'1212.5
2014-Dec-15 11:34N 51°02' E 001°39'1211.9
2014-Dec-15 10:33N 50°53' E 001°27'22413.5
2014-Dec-14 18:00N 49°42' W 004°06'145 9.9 240 / 241012.4 5.4 15.014.5
2014-Dec-14 03:17N 51°50' W 005°54'911.7
2014-Dec-14 02:33N 51°58' W 005°51'1111.2
2014-Dec-14 01:33N 52°09' W 005°47'1111.1
2014-Dec-14 00:33N 52°20' W 005°44'4 7.2
2014-Dec-14 00:00N 52°24' W 005°42'716.5 020 / 171010.510.8 1.5 8.4
2014-Dec-13 23:33N 52°31' W 005°41'7913.1
2014-Dec-13 17:29N 53°50' W 005°55'1112.3
2014-Dec-13 16:33N 54°01' W 006°03'3 3.0
2014-Dec-13 15:30N 54°02' W 006°08'0 0.0
2014-Dec-13 14:33N 54°02' W 006°08'0 0.0
2014-Dec-13 13:30N 54°02' W 006°08'0 0.0
2014-Dec-13 12:21N 54°02' W 006°08'0 0.0
2014-Dec-13 11:33N 54°02' W 006°08'0 0.0
2014-Dec-13 10:33N 54°02' W 006°08'0 0.0
2014-Dec-13 09:27N 54°02' W 006°08'0 0.0
2014-Dec-13 04:32N 54°02' W 006°08'0 0.0
2014-Dec-13 03:32N 54°02' W 006°08'0 0.0
2014-Dec-13 02:32N 54°02' W 006°08'0 0.0
2014-Dec-13 01:20N 54°02' W 006°08'0 0.0
2014-Dec-13 00:32N 54°02' W 006°08'0 0.0
2014-Dec-12 23:32N 54°02' W 006°08'0 0.0
2014-Dec-12 20:32N 54°02' W 006°08'0 0.0
2014-Dec-12 11:08N 54°02' W 006°08'0 0.0
2014-Dec-12 10:32N 54°02' W 006°08'0 0.0
2014-Dec-12 09:20N 54°02' W 006°08'0 0.0
2014-Dec-12 08:14N 54°02' W 006°08'0 0.0
2014-Dec-12 05:08N 54°02' W 006°08'0 0.0
2014-Dec-12 04:14N 54°02' W 006°08'0 0.0
2014-Dec-12 03:32N 54°02' W 006°08'0 0.0
2014-Dec-12 02:32N 54°02' W 006°08'0 0.2
2014-Dec-12 01:33N 54°02' W 006°08'5 5.0
2014-Dec-12 00:32N 53°59' W 006°01'0 0.1
2014-Dec-11 23:32N 53°59' W 006°00'0 0.0
2014-Dec-11 22:23N 53°59' W 006°00'0 0.0
2014-Dec-11 21:14N 53°59' W 006°00'0 0.0
2014-Dec-11 20:32N 53°59' W 006°00'0 0.0
2014-Dec-11 19:33N 53°59' W 006°00'1010.2
2014-Dec-11 18:33N 53°50' W 005°55'8812.6
2014-Dec-11 11:33N 52°21' W 005°53'1514.4
2014-Dec-11 10:32N 52°07' W 006°00'1414.4
2014-Dec-11 09:33N 51°59' W 006°18'1413.7
2014-Dec-11 08:33N 51°50' W 006°35'1313.0
2014-Dec-11 07:33N 51°41' W 006°51'5212.7
2014-Dec-11 03:29N 51°08' W 007°54'  
Track history (hours):
 
Tides and Currents Weather Stations Pressure Air Temp Water Temp Dewpoint Dewpoint Depression Visibility Wind Speed Wind Dir Waves Ship Positions

Emmagracht

Last reported at 2014-Dec-20 02:24 UTC. Time now 2014-Dec-20 02:56 UTC.
Position N 51°56' E 003°22'.

Length 136 m; beam 19 m; draft 9 m.

Type: Cargo ship. MMSI: 246308000.

Date/timePositionNaut miles runAvg speedWind from/ knotsBaromVisibWave heightAir tempDewpointWater temp
2014-Dec-20 02:24N 51°56' E 003°22'1213.3
2014-Dec-20 01:31N 51°45' E 003°16'1111.7
2014-Dec-20 00:33N 51°34' E 003°24'1211.5
2014-Dec-19 23:33N 51°26' E 003°36'8 8.4
2014-Dec-19 22:33N 51°21' E 003°48'9 9.5
2014-Dec-19 21:33N 51°26' E 004°01'8 8.4
2014-Dec-19 20:33N 51°22' E 004°13'3 3.0
2014-Dec-19 19:33N 51°21' E 004°17'2 2.3
2014-Dec-19 18:33N 51°19' E 004°19'3 2.9
2014-Dec-19 17:30N 51°17' E 004°23'0 0.0
2014-Dec-19 16:33N 51°17' E 004°23'0 0.0
2014-Dec-19 15:33N 51°17' E 004°23'0 0.0
2014-Dec-19 14:33N 51°17' E 004°23'0 0.0
2014-Dec-19 13:33N 51°17' E 004°23'0 0.0
2014-Dec-19 12:33N 51°17' E 004°23'0 0.0
2014-Dec-19 11:30N 51°17' E 004°23'0 0.0
2014-Dec-19 10:33N 51°17' E 004°23'0 0.0
2014-Dec-19 09:33N 51°17' E 004°23'0 0.0
2014-Dec-19 08:33N 51°17' E 004°23'0 0.0
2014-Dec-19 07:33N 51°17' E 004°23'0 0.0
2014-Dec-19 06:33N 51°17' E 004°23'0 0.0
2014-Dec-19 05:33N 51°17' E 004°23'0 0.0
2014-Dec-19 04:30N 51°17' E 004°23'0 0.0
2014-Dec-19 03:33N 51°17' E 004°23'0 0.0
2014-Dec-19 02:33N 51°17' E 004°23'0 0.0
2014-Dec-19 01:33N 51°17' E 004°23'0 0.0
2014-Dec-19 00:33N 51°17' E 004°23'0 0.0
2014-Dec-18 23:33N 51°17' E 004°23'0 0.0
2014-Dec-18 22:33N 51°17' E 004°23'0 0.0
2014-Dec-18 21:33N 51°17' E 004°23'0 0.0
2014-Dec-18 20:30N 51°17' E 004°23'0 0.0
2014-Dec-18 19:33N 51°17' E 004°23'0 0.0
2014-Dec-18 18:33N 51°17' E 004°23'0 0.0
2014-Dec-18 17:33N 51°17' E 004°23'0 0.0
2014-Dec-18 16:33N 51°17' E 004°23'0 0.0
2014-Dec-18 15:33N 51°17' E 004°23'0 0.0
2014-Dec-18 14:30N 51°17' E 004°23'0 0.0
2014-Dec-18 13:33N 51°17' E 004°23'0 0.0
2014-Dec-18 12:33N 51°17' E 004°23'0 0.0
2014-Dec-18 11:32N 51°17' E 004°23'0 0.0
2014-Dec-18 10:32N 51°17' E 004°23'0 0.0
2014-Dec-18 09:32N 51°17' E 004°23'0 0.0
2014-Dec-18 08:32N 51°17' E 004°23'0 0.0
2014-Dec-18 07:32N 51°17' E 004°23'0 0.0
2014-Dec-18 06:32N 51°17' E 004°23'0 0.0
2014-Dec-18 05:32N 51°17' E 004°23'0 0.0
2014-Dec-18 04:32N 51°17' E 004°23'0 0.0
2014-Dec-18 03:32N 51°17' E 004°23'0 0.0
2014-Dec-18 02:32N 51°17' E 004°23'0 0.0
2014-Dec-18 01:32N 51°17' E 004°23'0 0.0
2014-Dec-18 00:32N 51°17' E 004°23'0 0.0
2014-Dec-17 23:32N 51°17' E 004°23'0 0.0
2014-Dec-17 22:32N 51°17' E 004°23'0 0.0
2014-Dec-17 21:32N 51°17' E 004°23'0 0.0
2014-Dec-17 20:32N 51°17' E 004°23'0 0.0
2014-Dec-17 19:32N 51°17' E 004°23'0 0.0
2014-Dec-17 18:32N 51°17' E 004°23'0 0.0
2014-Dec-17 17:32N 51°17' E 004°23'0 0.0
2014-Dec-17 16:32N 51°17' E 004°23'0 0.0
2014-Dec-17 15:32N 51°17' E 004°23'0 0.0
2014-Dec-17 14:32N 51°17' E 004°23'0 0.0
2014-Dec-17 13:32N 51°17' E 004°23'0 0.0
2014-Dec-17 12:32N 51°17' E 004°23'0 0.0
2014-Dec-17 11:32N 51°17' E 004°23'0 0.0
2014-Dec-17 10:32N 51°17' E 004°23'0 0.0
2014-Dec-17 09:32N 51°17' E 004°23'0 0.0
2014-Dec-17 08:29N 51°17' E 004°23'0 0.0
2014-Dec-17 07:32N 51°17' E 004°23'0 0.0
2014-Dec-17 06:32N 51°17' E 004°23'0 0.0
2014-Dec-17 05:32N 51°17' E 004°23'0 0.0
2014-Dec-17 04:32N 51°17' E 004°23'0 0.0
2014-Dec-17 03:32N 51°17' E 004°23'0 0.0
2014-Dec-17 02:32N 51°17' E 004°23'0 0.0
2014-Dec-17 01:32N 51°17' E 004°23'0 0.0
2014-Dec-17 00:31N 51°17' E 004°23'0 0.0
2014-Dec-16 23:31N 51°17' E 004°23'0 0.0
2014-Dec-16 22:31N 51°17' E 004°23'0 0.0
2014-Dec-16 21:31N 51°17' E 004°23'0 0.0
2014-Dec-16 20:28N 51°17' E 004°23'0 0.0
2014-Dec-16 19:28N 51°17' E 004°23'0 0.0
2014-Dec-16 18:31N 51°17' E 004°23'0 0.0
2014-Dec-16 17:31N 51°17' E 004°23'0 0.0
2014-Dec-16 16:31N 51°17' E 004°23'0 0.0
2014-Dec-16 15:31N 51°17' E 004°23'0 0.0
2014-Dec-16 14:31N 51°17' E 004°23'0 0.0
2014-Dec-16 13:31N 51°17' E 004°23'0 0.0
2014-Dec-16 12:31N 51°17' E 004°23'1 1.4
2014-Dec-16 11:33N 51°17' E 004°21'4 4.3
2014-Dec-16 10:34N 51°21' E 004°17'0 0.4
2014-Dec-16 09:33N 51°21' E 004°17'5 5.0
2014-Dec-16 08:33N 51°23' E 004°09'1010.3
2014-Dec-16 07:33N 51°21' E 003°53'1313.3
2014-Dec-16 06:34N 51°25' E 003°33'1515.4
2014-Dec-16 05:33N 51°24' E 003°08'18 8.5
2014-Dec-16 03:28N 51°22' E 002°40'4 3.7
2014-Dec-16 02:25N 51°25' E 002°37'0 0.0
2014-Dec-15 22:34N 51°25' E 002°37'0 0.0
2014-Dec-15 21:33N 51°25' E 002°37'0 0.0
2014-Dec-15 20:30N 51°25' E 002°37'0 0.0
2014-Dec-15 19:33N 51°25' E 002°37'0 0.0
2014-Dec-15 18:33N 51°25' E 002°37'0 0.0
2014-Dec-15 17:30N 51°25' E 002°37'0 0.1
2014-Dec-15 16:33N 51°25' E 002°37'0 0.1
2014-Dec-15 15:33N 51°25' E 002°37'5 5.0
2014-Dec-15 14:33N 51°22' E 002°31'1312.8
2014-Dec-15 13:33N 51°16' E 002°12'1312.9
2014-Dec-15 12:33N 51°10' E 001°54'1212.5
2014-Dec-15 11:34N 51°02' E 001°39'1211.9
2014-Dec-15 10:33N 50°53' E 001°27'22413.5
2014-Dec-14 18:00N 49°42' W 004°06'145 9.9 240 / 241012.4 5.4 15.014.5
2014-Dec-14 03:17N 51°50' W 005°54'911.7
2014-Dec-14 02:33N 51°58' W 005°51'1111.2
2014-Dec-14 01:33N 52°09' W 005°47'1111.1
2014-Dec-14 00:33N 52°20' W 005°44'4 7.2
2014-Dec-14 00:00N 52°24' W 005°42'716.5 020 / 171010.510.8 1.5 8.4
2014-Dec-13 23:33N 52°31' W 005°41'7913.1
2014-Dec-13 17:29N 53°50' W 005°55'1112.3
2014-Dec-13 16:33N 54°01' W 006°03'3 3.0
2014-Dec-13 15:30N 54°02' W 006°08'0 0.0
2014-Dec-13 14:33N 54°02' W 006°08'0 0.0
2014-Dec-13 13:30N 54°02' W 006°08'0 0.0
2014-Dec-13 12:21N 54°02' W 006°08'0 0.0
2014-Dec-13 11:33N 54°02' W 006°08'0 0.0
2014-Dec-13 10:33N 54°02' W 006°08'0 0.0
2014-Dec-13 09:27N 54°02' W 006°08'0 0.0
2014-Dec-13 04:32N 54°02' W 006°08'0 0.0
2014-Dec-13 03:32N 54°02' W 006°08'0 0.0
2014-Dec-13 02:32N 54°02' W 006°08'0 0.0
2014-Dec-13 01:20N 54°02' W 006°08'0 0.0
2014-Dec-13 00:32N 54°02' W 006°08'0 0.0
2014-Dec-12 23:32N 54°02' W 006°08'0 0.0
2014-Dec-12 20:32N 54°02' W 006°08'0 0.0
2014-Dec-12 11:08N 54°02' W 006°08'0 0.0
2014-Dec-12 10:32N 54°02' W 006°08'0 0.0
2014-Dec-12 09:20N 54°02' W 006°08'0 0.0
2014-Dec-12 08:14N 54°02' W 006°08'0 0.0
2014-Dec-12 05:08N 54°02' W 006°08'0 0.0
2014-Dec-12 04:14N 54°02' W 006°08'0 0.0
2014-Dec-12 03:32N 54°02' W 006°08'0 0.0
2014-Dec-12 02:32N 54°02' W 006°08'0 0.2
2014-Dec-12 01:33N 54°02' W 006°08'5 5.0
2014-Dec-12 00:32N 53°59' W 006°01'0 0.1
2014-Dec-11 23:32N 53°59' W 006°00'0 0.0
2014-Dec-11 22:23N 53°59' W 006°00'0 0.0
2014-Dec-11 21:14N 53°59' W 006°00'0 0.0
2014-Dec-11 20:32N 53°59' W 006°00'0 0.0
2014-Dec-11 19:33N 53°59' W 006°00'1010.2
2014-Dec-11 18:33N 53°50' W 005°55'8812.6
2014-Dec-11 11:33N 52°21' W 005°53'1514.4
2014-Dec-11 10:32N 52°07' W 006°00'1414.4
2014-Dec-11 09:33N 51°59' W 006°18'1413.7
2014-Dec-11 08:33N 51°50' W 006°35'1313.0
2014-Dec-11 07:33N 51°41' W 006°51'5212.7
2014-Dec-11 03:29N 51°08' W 007°54'  

Dump ship's entire track history